Time;durP1;ratioP1;P1;durP2;ratioP2;P2;SDS_P1;SDS_P2;PMS_P1;PMS_P2;Temp;Humidity;BMP_temperature;BMP_pressure;BME280_temperature;BME280_humidity;BME280_pressure;Samples;Min_cycle;Max_cycle;Signal;HPM_P1;HPM_P2
2022/05/25 00:01:17;;;;;;;1.10;0.80;;;15.40;99.90;;;;;;5072744;28;20468;-43
2022/05/25 00:03:44;;;;;;;1.00;0.80;;;15.40;99.90;;;;;;5072568;28;20488;-43
2022/05/25 00:06:12;;;;;;;2.20;1.00;;;15.50;99.90;;;;;;5072415;28;20952;-44
2022/05/25 00:08:41;;;;;;;1.73;1.10;;;15.50;99.90;;;;;;5071769;28;20452;-53
2022/05/25 00:11:08;;;;;;;1.10;0.87;;;15.50;99.90;;;;;;5127524;22;20484;-44
2022/05/25 00:13:37;;;;;;;1.00;0.80;;;15.50;99.90;;;;;;5072209;28;20971;-43
2022/05/25 00:16:04;;;;;;;1.10;0.70;;;15.60;99.90;;;;;;5072202;28;20929;-44
2022/05/25 00:18:31;;;;;;;1.20;0.83;;;15.60;99.90;;;;;;5072024;28;20441;-44
2022/05/25 00:20:57;;;;;;;2.03;1.00;;;15.40;99.90;;;;;;5071993;28;20547;-47
2022/05/25 00:23:24;;;;;;;1.20;0.93;;;15.50;99.90;;;;;;5071908;28;20500;-44
2022/05/25 00:25:51;;;;;;;2.30;1.00;;;15.50;99.90;;;;;;5071759;28;20452;-43
2022/05/25 00:28:18;;;;;;;1.30;1.00;;;15.60;99.90;;;;;;5072056;28;20483;-46
2022/05/25 00:30:47;;;;;;;2.33;1.03;;;15.50;99.90;;;;;;5071807;28;20492;-44
2022/05/25 00:33:14;;;;;;;2.20;1.30;;;15.10;99.90;;;;;;5071839;28;20781;-44
2022/05/25 00:35:42;;;;;;;2.60;1.20;;;14.70;99.90;;;;;;5071788;28;20904;-44
2022/05/25 00:38:10;;;;;;;1.70;1.00;;;14.50;99.90;;;;;;5071754;28;20937;-44
2022/05/25 00:40:39;;;;;;;1.50;1.10;;;14.60;99.90;;;;;;5071747;28;20540;-44
2022/05/25 00:43:07;;;;;;;2.90;1.30;;;14.50;99.90;;;;;;5071499;28;20468;-44
2022/05/25 00:45:39;;;;;;;1.93;0.93;;;14.60;99.90;;;;;;5071550;28;20494;-44
2022/05/25 00:48:10;;;;;;;2.20;1.10;;;14.70;99.90;;;;;;5071401;28;20449;-45
2022/05/25 00:53:23;;;;;;;1.30;0.70;;;14.80;99.90;;;;;;5071571;28;20455;-44
2022/05/25 00:55:51;;;;;;;1.33;0.80;;;14.90;99.90;;;;;;5071540;28;20448;-45
2022/05/25 00:58:18;;;;;;;1.23;1.00;;;15.10;99.90;;;;;;5071651;28;20464;-44
2022/05/25 01:00:45;;;;;;;1.43;1.00;;;15.10;99.90;;;;;;5071206;28;20484;-45
2022/05/25 01:03:13;;;;;;;1.20;0.90;;;15.10;99.90;;;;;;5071679;28;20476;-44
2022/05/25 01:05:50;;;;;;;1.20;0.87;;;14.90;99.90;;;;;;5071548;28;20530;-44
2022/05/25 01:08:34;;;;;;;1.30;0.73;;;14.70;99.90;;;;;;5070853;28;20720;-44
2022/05/25 01:11:19;;;;;;;1.40;0.90;;;14.70;99.90;;;;;;5071095;28;20980;-47
2022/05/25 01:13:52;;;;;;;3.30;1.00;;;14.80;99.90;;;;;;5071722;28;20441;-44
2022/05/25 01:16:27;;;;;;;1.20;0.83;;;14.90;99.90;;;;;;5071376;28;20467;-46
2022/05/25 01:19:01;;;;;;;2.57;1.17;;;14.90;99.90;;;;;;5070870;28;20447;-45
2022/05/25 01:21:33;;;;;;;2.40;1.20;;;14.90;99.90;;;;;;5071494;28;20493;-45
2022/05/25 01:24:25;;;;;;;1.10;1.00;;;15.00;99.90;;;;;;5071356;28;20503;-47
2022/05/25 01:27:26;;;;;;;3.10;1.10;;;15.20;99.90;;;;;;5071521;28;20440;-45
2022/05/25 01:30:16;;;;;;;1.13;0.70;;;15.30;99.90;;;;;;5070936;28;20813;-44
2022/05/25 01:33:06;;;;;;;2.13;0.97;;;15.40;99.90;;;;;;5067190;28;20456;-44
2022/05/25 01:35:44;;;;;;;1.27;1.03;;;15.40;99.90;;;;;;5071254;28;20955;-44
2022/05/25 01:38:19;;;;;;;2.23;1.10;;;15.40;99.90;;;;;;5071317;28;20528;-44
2022/05/25 01:40:51;;;;;;;2.77;1.67;;;15.50;99.90;;;;;;5070955;28;20460;-44
2022/05/25 01:43:22;;;;;;;2.27;1.57;;;15.70;99.90;;;;;;5071367;28;20550;-44
2022/05/25 01:45:54;;;;;;;1.20;1.10;;;15.70;99.90;;;;;;5071570;28;20531;-43
2022/05/25 01:48:23;;;;;;;3.27;1.10;;;15.70;99.90;;;;;;5070692;28;20441;-44
2022/05/25 01:50:54;;;;;;;1.57;1.20;;;15.70;99.90;;;;;;5070849;28;20839;-45
2022/05/25 01:53:25;;;;;;;1.70;1.37;;;15.80;99.90;;;;;;5071004;28;20475;-44
2022/05/25 01:55:56;;;;;;;1.67;0.93;;;15.80;99.90;;;;;;5071300;28;20466;-46
2022/05/25 01:58:26;;;;;;;2.03;1.40;;;15.70;99.90;;;;;;5070989;28;20505;-44
2022/05/25 02:00:59;;;;;;;1.70;1.00;;;15.60;99.90;;;;;;5074513;28;20476;-43
2022/05/25 02:06:28;;;;;;;1.57;1.33;;;15.00;99.90;;;;;;5074940;28;20782;-44
2022/05/25 02:09:11;;;;;;;1.97;1.27;;;15.00;99.90;;;;;;5074497;28;20925;-44
2022/05/25 02:11:42;;;;;;;2.17;1.27;;;15.10;99.90;;;;;;5074501;28;20468;-44
2022/05/25 02:14:20;;;;;;;1.87;1.20;;;15.10;99.90;;;;;;5074634;28;20941;-45
2022/05/25 02:16:56;;;;;;;1.73;1.43;;;15.10;99.90;;;;;;5075196;28;20480;-45
2022/05/25 02:19:27;;;;;;;1.60;1.37;;;15.20;99.90;;;;;;5074514;28;20543;-45
2022/05/25 02:21:57;;;;;;;3.00;1.43;;;15.10;99.90;;;;;;5074346;28;20513;-44
2022/05/25 02:24:30;;;;;;;1.63;1.33;;;15.20;99.90;;;;;;5074536;28;20480;-44
2022/05/25 02:27:04;;;;;;;2.33;1.30;;;15.20;99.90;;;;;;5074486;28;20505;-44
2022/05/25 02:29:36;;;;;;;1.57;1.43;;;15.00;99.90;;;;;;5073953;28;20443;-44
2022/05/25 02:32:13;;;;;;;1.70;1.20;;;14.90;99.90;;;;;;5074185;28;20491;-44
2022/05/25 02:34:44;;;;;;;1.30;1.10;;;15.00;99.90;;;;;;5074081;28;20479;-44
2022/05/25 02:37:13;;;;;;;1.33;1.00;;;15.10;99.90;;;;;;5074111;28;20444;-44
2022/05/25 02:39:40;;;;;;;1.33;1.13;;;15.20;99.90;;;;;;5073981;28;20851;-44
2022/05/25 02:42:14;;;;;;;1.33;1.10;;;15.30;99.90;;;;;;5074277;28;20495;-46
2022/05/25 02:44:41;;;;;;;1.57;1.10;;;15.30;99.90;;;;;;5074068;28;20483;-47
2022/05/25 02:47:10;;;;;;;1.33;1.10;;;15.10;99.90;;;;;;5074131;28;20472;-44
2022/05/25 02:49:37;;;;;;;2.53;1.37;;;15.20;99.90;;;;;;5073868;28;20432;-44
2022/05/25 02:52:05;;;;;;;1.73;1.43;;;15.20;99.90;;;;;;5073866;28;20816;-46
2022/05/25 02:54:31;;;;;;;3.13;1.20;;;15.40;99.90;;;;;;5073732;28;20468;-44
2022/05/25 02:56:58;;;;;;;1.60;1.23;;;15.50;99.90;;;;;;5074089;28;20531;-44
2022/05/25 02:59:25;;;;;;;1.30;1.17;;;15.50;99.90;;;;;;5073671;28;20469;-44
2022/05/25 03:01:53;;;;;;;2.00;1.70;;;15.30;99.90;;;;;;5073523;28;20518;-44
2022/05/25 03:04:21;;;;;;;3.40;1.90;;;15.20;99.90;;;;;;5073380;28;20476;-47
2022/05/25 03:06:48;;;;;;;1.40;1.30;;;15.20;99.90;;;;;;5073085;28;20494;-46
2022/05/25 03:09:15;;;;;;;2.30;1.10;;;15.10;99.90;;;;;;5073641;28;20510;-44
2022/05/25 03:11:42;;;;;;;1.97;1.40;;;15.10;99.90;;;;;;5071820;28;20984;-46
2022/05/25 03:14:09;;;;;;;4.73;1.30;;;15.10;99.90;;;;;;5073673;28;20464;-44
2022/05/25 03:16:36;;;;;;;1.50;0.90;;;15.10;99.90;;;;;;5073265;28;20506;-44
2022/05/25 03:19:03;;;;;;;3.47;1.10;;;15.20;99.90;;;;;;5072955;28;20472;-44
2022/05/25 03:21:31;;;;;;;2.33;1.47;;;15.30;99.90;;;;;;5073333;28;20488;-44
2022/05/25 03:23:58;;;;;;;1.93;1.43;;;15.40;99.90;;;;;;5073103;28;20508;-43
2022/05/25 03:26:25;;;;;;;1.60;1.37;;;15.30;99.90;;;;;;5073364;28;20476;-46
2022/05/25 03:28:52;;;;;;;1.70;1.30;;;15.00;99.90;;;;;;5072927;28;20444;-45
2022/05/25 03:31:19;;;;;;;2.13;1.50;;;14.70;99.90;;;;;;5073103;28;20460;-44
2022/05/25 03:33:46;;;;;;;5.27;1.53;;;14.80;99.90;;;;;;5072922;28;20444;-44
2022/05/25 03:36:13;;;;;;;2.37;1.67;;;15.00;99.90;;;;;;5073236;28;20444;-44
2022/05/25 03:38:42;;;;;;;2.80;1.90;;;15.20;99.90;;;;;;5073053;28;20443;-45
2022/05/25 03:41:09;;;;;;;2.00;1.80;;;15.20;99.90;;;;;;5072819;28;20859;-44
2022/05/25 03:43:39;;;;;;;1.93;1.73;;;14.90;99.90;;;;;;5072671;28;20539;-44
2022/05/25 03:46:06;;;;;;;2.40;1.60;;;14.80;99.90;;;;;;5072774;28;20444;-44
2022/05/25 03:48:34;;;;;;;1.70;1.40;;;14.80;99.90;;;;;;5072808;28;20445;-44
2022/05/25 03:51:01;;;;;;;1.53;1.43;;;14.90;99.90;;;;;;5072511;28;20826;-44
2022/05/25 03:53:28;;;;;;;3.03;2.20;;;14.90;99.90;;;;;;5072662;28;20440;-44
2022/05/25 03:55:56;;;;;;;2.23;1.83;;;14.80;99.90;;;;;;5072360;28;20448;-46
2022/05/25 03:58:23;;;;;;;2.07;1.57;;;14.70;99.90;;;;;;5072596;28;20436;-45
2022/05/25 04:00:50;;;;;;;1.83;1.50;;;14.80;99.90;;;;;;5072236;28;20492;-44
2022/05/25 04:03:17;;;;;;;3.03;2.83;;;14.90;99.90;;;;;;5072528;28;20494;-44
2022/05/25 04:05:44;;;;;;;3.20;2.90;;;15.00;99.90;;;;;;5072798;28;20472;-43
2022/05/25 04:08:12;;;;;;;3.30;3.00;;;14.80;99.90;;;;;;5072212;28;20468;-44
2022/05/25 04:10:39;;;;;;;3.93;3.37;;;14.70;99.90;;;;;;5072027;28;20533;-45
2022/05/25 04:13:08;;;;;;;3.87;3.43;;;14.70;99.90;;;;;;5072185;28;20815;-45
2022/05/25 04:15:35;;;;;;;3.80;3.50;;;14.70;99.90;;;;;;5072523;28;20471;-44
2022/05/25 04:18:03;;;;;;;6.00;3.50;;;14.60;99.90;;;;;;5072374;28;20441;-44
2022/05/25 04:20:32;;;;;;;3.97;3.50;;;14.70;99.90;;;;;;5071801;28;20464;-43
2022/05/25 04:22:59;;;;;;;3.30;3.00;;;14.90;99.90;;;;;;5071575;28;20497;-47
2022/05/25 04:25:27;;;;;;;4.47;4.07;;;15.00;99.90;;;;;;5071897;28;20508;-44
2022/05/25 04:27:56;;;;;;;3.50;3.20;;;15.10;99.90;;;;;;5072049;28;20519;-43
2022/05/25 04:30:27;;;;;;;3.80;3.40;;;15.10;99.90;;;;;;5071721;28;20465;-44
2022/05/25 04:32:55;;;;;;;4.87;3.77;;;15.30;99.90;;;;;;5072172;28;20870;-44
2022/05/25 04:35:23;;;;;;;4.17;3.77;;;15.30;99.90;;;;;;5072141;28;20472;-44
2022/05/25 04:37:52;;;;;;;4.10;3.70;;;15.20;99.90;;;;;;5071552;28;20487;-44
2022/05/25 04:40:25;;;;;;;3.90;3.60;;;15.20;99.90;;;;;;5071567;28;20472;-44
2022/05/25 04:42:53;;;;;;;4.93;3.60;;;15.00;99.90;;;;;;5071621;28;20474;-46
2022/05/25 04:45:22;;;;;;;3.63;3.33;;;14.90;99.90;;;;;;5071771;28;20476;-47
2022/05/25 04:47:50;;;;;;;4.67;4.20;;;14.90;99.90;;;;;;5071807;28;20445;-45
2022/05/25 04:50:19;;;;;;;3.27;2.97;;;14.90;99.90;;;;;;5071354;28;20975;-44
2022/05/25 04:52:47;;;;;;;3.17;2.87;;;14.90;99.90;;;;;;5071891;28;20505;-44
2022/05/25 04:57:55;;;;;;;3.90;3.60;;;14.80;99.90;;;;;;5070683;28;20431;-44
2022/05/25 05:00:22;;;;;;;3.57;3.27;;;14.70;99.90;;;;;;5070934;28;20456;-43
2022/05/25 05:02:50;;;;;;;5.53;5.00;;;14.80;99.90;;;;;;5071604;28;20456;-44
2022/05/25 05:05:17;;;;;;;3.53;3.23;;;14.90;99.90;;;;;;5071740;28;20508;-44
2022/05/25 05:07:45;;;;;;;3.30;2.97;;;15.10;99.90;;;;;;5070998;28;20440;-44
2022/05/25 05:10:12;;;;;;;3.30;3.00;;;15.20;99.90;;;;;;5070999;28;20437;-47
2022/05/25 05:12:40;;;;;;;3.37;2.53;;;15.30;99.90;;;;;;5071093;28;20449;-44
2022/05/25 05:15:07;;;;;;;3.20;2.90;;;15.30;99.90;;;;;;5071526;28;20470;-44
2022/05/25 05:17:34;;;;;;;2.87;2.60;;;15.10;99.90;;;;;;5071436;28;20991;-45
2022/05/25 05:20:03;;;;;;;3.60;2.70;;;15.00;99.90;;;;;;5071164;28;20815;-44
2022/05/25 05:22:30;;;;;;;3.37;3.07;;;14.90;99.90;;;;;;5071373;28;20495;-45
2022/05/25 05:24:58;;;;;;;3.37;3.07;;;14.80;99.90;;;;;;5071047;28;20563;-44
2022/05/25 05:27:26;;;;;;;6.70;3.27;;;14.90;99.90;;;;;;5071386;28;20969;-44
2022/05/25 05:29:53;;;;;;;3.20;2.90;;;15.00;99.90;;;;;;5070931;28;20592;-46
2022/05/25 05:32:20;;;;;;;3.60;2.83;;;15.20;99.90;;;;;;5071158;28;20488;-45
2022/05/25 05:34:46;;;;;;;3.50;2.90;;;15.20;99.90;;;;;;5073844;28;20479;-43
2022/05/25 05:37:21;;;;;;;3.57;3.27;;;15.10;99.90;;;;;;5075188;28;20513;-44
2022/05/25 05:39:54;;;;;;;4.00;3.60;;;15.10;99.90;;;;;;5074790;28;20471;-44
2022/05/25 05:42:22;;;;;;;3.03;2.83;;;15.20;99.90;;;;;;5075251;28;20443;-44
2022/05/25 05:44:59;;;;;;;3.23;2.93;;;15.20;99.90;;;;;;5075173;28;20563;-44
2022/05/25 05:47:31;;;;;;;3.30;2.80;;;14.90;99.90;;;;;;5075173;28;20463;-46
2022/05/25 05:49:59;;;;;;;3.97;3.10;;;14.80;99.90;;;;;;5074522;28;21043;-44
2022/05/25 05:52:28;;;;;;;4.20;3.70;;;14.70;99.90;;;;;;5075009;28;20452;-43
2022/05/25 05:54:56;;;;;;;4.10;3.70;;;14.70;99.90;;;;;;5075174;28;20494;-44
2022/05/25 05:57:23;;;;;;;4.07;3.67;;;14.60;99.90;;;;;;5074759;28;20479;-45
2022/05/25 05:59:50;;;;;;;3.73;3.33;;;14.70;99.90;;;;;;5074561;28;21010;-44
2022/05/25 06:02:16;;;;;;;3.80;3.50;;;14.80;99.90;;;;;;5074689;28;20543;-44
2022/05/25 06:04:43;;;;;;;3.53;3.20;;;14.80;99.90;;;;;;5074685;28;20537;-44
2022/05/25 06:07:10;;;;;;;4.00;3.63;;;14.80;99.90;;;;;;5074355;28;20482;-44
2022/05/25 06:09:39;;;;;;;3.77;3.47;;;14.80;99.90;;;;;;5074638;28;20527;-45
2022/05/25 06:12:06;;;;;;;4.10;3.70;;;14.90;99.90;;;;;;5074585;28;20555;-47
2022/05/25 06:14:33;;;;;;;5.23;4.63;;;15.10;99.90;;;;;;5073199;28;20476;-44
2022/05/25 06:19:44;;;;;;;4.80;4.30;;;15.10;99.90;;;;;;5073131;28;20419;-44
2022/05/25 06:22:13;;;;;;;7.30;6.57;;;15.10;99.90;;;;;;5073110;28;20464;-44
2022/05/25 06:24:45;;;;;;;5.97;5.10;;;15.30;99.90;;;;;;5073093;28;21033;-45
2022/05/25 06:27:13;;;;;;;4.53;4.03;;;15.40;99.90;;;;;;5073201;28;20482;-44
2022/05/25 06:29:43;;;;;;;5.17;4.67;;;15.50;99.90;;;;;;5072706;28;20497;-48
2022/05/25 06:32:12;;;;;;;4.60;3.70;;;15.50;99.90;;;;;;5073458;28;20464;-44
2022/05/25 06:34:41;;;;;;;5.00;4.10;;;15.60;99.90;;;;;;5073081;28;20493;-44
2022/05/25 06:37:14;;;;;;;6.47;4.93;;;15.60;99.90;;;;;;5073202;28;20472;-44
2022/05/25 06:39:42;;;;;;;7.10;5.33;;;15.60;99.90;;;;;;5072733;28;20905;-44
2022/05/25 06:42:09;;;;;;;6.37;5.77;;;15.60;99.90;;;;;;5072798;28;21041;-48
2022/05/25 06:44:36;;;;;;;6.43;4.93;;;15.60;99.90;;;;;;5072296;28;20462;-45
2022/05/25 06:47:04;;;;;;;6.50;4.50;;;15.70;99.90;;;;;;5072758;28;20483;-48
2022/05/25 06:49:31;;;;;;;4.60;4.07;;;15.70;99.90;;;;;;5072599;28;20886;-44
2022/05/25 06:51:57;;;;;;;5.37;3.90;;;15.70;99.90;;;;;;5072530;28;20496;-45
2022/05/25 06:54:24;;;;;;;5.43;4.00;;;15.70;99.90;;;;;;5072497;28;20494;-47
2022/05/25 06:56:53;;;;;;;5.40;4.40;;;15.70;99.90;;;;;;5072918;28;20441;-45
2022/05/25 06:59:20;;;;;;;4.97;4.30;;;15.60;99.90;;;;;;5072545;28;20483;-45
2022/05/25 07:01:47;;;;;;;4.63;4.13;;;15.40;99.90;;;;;;5072795;28;20533;-46
2022/05/25 07:04:13;;;;;;;5.50;3.77;;;15.40;99.90;;;;;;5072464;28;20444;-46
2022/05/25 07:06:40;;;;;;;7.10;4.57;;;15.50;99.90;;;;;;5071910;28;20545;-45
2022/05/25 07:09:09;;;;;;;4.27;3.97;;;15.60;99.90;;;;;;5071787;28;20455;-45
2022/05/25 07:11:36;;;;;;;3.73;3.00;;;15.60;99.90;;;;;;5031271;28;1186656;-45
2022/05/25 07:14:05;;;;;;;3.40;3.10;;;15.70;99.90;;;;;;5073500;28;20232;-46
2022/05/25 07:16:32;;;;;;;4.00;3.27;;;15.60;99.90;;;;;;5073465;28;20437;-45
2022/05/25 07:18:59;;;;;;;2.13;1.57;;;15.60;99.90;;;;;;5073183;28;20681;-46
2022/05/25 07:21:31;;;;;;;1.30;0.90;;;15.50;99.90;;;;;;5073748;28;20930;-45
2022/05/25 07:24:00;;;;;;;1.10;0.80;;;15.30;99.90;;;;;;5073447;28;20827;-48
2022/05/25 07:26:29;;;;;;;2.00;1.40;;;15.20;99.90;;;;;;5073386;28;20468;-47
2022/05/25 07:28:56;;;;;;;1.67;1.20;;;15.40;99.90;;;;;;5072947;28;20484;-49
2022/05/25 07:31:27;;;;;;;2.27;2.07;;;15.40;99.90;;;;;;5073121;28;20883;-45
2022/05/25 07:34:01;;;;;;;2.80;2.10;;;15.50;99.90;;;;;;5073047;28;20921;-49
2022/05/25 07:36:29;;;;;;;2.67;1.23;;;15.40;99.90;;;;;;5073072;28;20448;-45
2022/05/25 07:38:59;;;;;;;0.80;0.40;;;15.40;99.90;;;;;;5073185;28;20921;-44
2022/05/25 07:41:26;;;;;;;0.90;0.50;;;15.10;99.90;;;;;;5073105;28;20464;-46
2022/05/25 07:43:57;;;;;;;1.20;0.70;;;15.20;99.90;;;;;;5072648;28;20487;-47
2022/05/25 07:46:27;;;;;;;0.90;0.60;;;15.30;99.90;;;;;;5072988;28;20511;-45
2022/05/25 07:48:54;;;;;;;2.27;1.20;;;15.50;99.90;;;;;;5072760;28;20473;-45
2022/05/25 07:51:21;;;;;;;2.10;1.37;;;15.80;99.90;;;;;;5072765;28;20547;-45
2022/05/25 07:53:57;;;;;;;3.10;1.63;;;15.90;99.90;;;;;;5072500;28;20440;-44
2022/05/25 07:56:25;;;;;;;3.00;1.70;;;16.00;99.90;;;;;;5071904;28;20459;-49
2022/05/25 07:58:53;;;;;;;1.57;1.30;;;16.10;99.90;;;;;;5072431;28;20459;-49
2022/05/25 08:05:43;;;;;;;1.70;1.50;;;16.20;99.90;;;;;;5072399;28;20965;-45
2022/05/25 08:06:57;;;;;;;1.50;1.27;;;16.20;99.90;;;;;;5071993;28;21066;-45
2022/05/25 08:09:25;;;;;;;1.40;1.30;;;16.20;99.90;;;;;;5072680;28;20441;-44
2022/05/25 08:11:52;;;;;;;1.30;1.10;;;16.30;99.90;;;;;;5071928;28;20602;-46
2022/05/25 08:14:19;;;;;;;1.47;1.20;;;16.30;99.90;;;;;;5072159;28;20444;-47
2022/05/25 08:16:46;;;;;;;1.27;1.10;;;16.40;99.90;;;;;;5072312;28;20440;-46
2022/05/25 08:19:14;;;;;;;1.47;1.13;;;16.40;99.90;;;;;;5071991;28;20850;-49
2022/05/25 08:21:41;;;;;;;1.30;1.20;;;16.50;99.90;;;;;;5072047;28;20457;-48
2022/05/25 08:24:08;;;;;;;2.00;1.17;;;16.50;99.90;;;;;;5072311;28;20490;-45
2022/05/25 08:26:36;;;;;;;1.30;0.73;;;16.50;99.90;;;;;;5072017;28;20522;-45
2022/05/25 08:29:02;;;;;;;1.27;1.00;;;16.50;99.90;;;;;;5071967;28;20612;-45
2022/05/25 08:31:29;;;;;;;1.50;1.23;;;16.40;99.90;;;;;;5072002;28;21015;-45
2022/05/25 08:33:56;;;;;;;1.47;1.20;;;16.30;99.90;;;;;;5072516;28;20440;-45
2022/05/25 08:36:25;;;;;;;1.53;0.80;;;16.40;99.90;;;;;;5071979;28;20494;-45
2022/05/25 08:38:55;;;;;;;3.47;1.80;;;16.40;99.90;;;;;;5071457;28;21161;-45
2022/05/25 08:41:27;;;;;;;3.00;1.30;;;16.30;99.90;;;;;;5071707;28;20519;-45
2022/05/25 08:43:55;;;;;;;1.40;1.27;;;16.40;99.90;;;;;;5071908;28;20436;-46
2022/05/25 08:46:24;;;;;;;1.50;1.40;;;16.40;99.90;;;;;;5071626;28;21006;-44
2022/05/25 08:48:52;;;;;;;2.90;2.00;;;16.50;99.90;;;;;;5071596;28;20535;-47
2022/05/25 08:51:25;;;;;;;1.73;1.60;;;16.30;99.90;;;;;;5071659;28;20465;-45
2022/05/25 08:53:54;;;;;;;2.10;1.87;;;16.30;99.90;;;;;;5071817;28;20440;-46
2022/05/25 08:56:27;;;;;;;2.57;1.30;;;16.40;99.90;;;;;;5071693;28;20532;-45
2022/05/25 08:59:01;;;;;;;1.50;1.23;;;16.50;99.90;;;;;;5071438;28;20440;-45
2022/05/25 09:01:33;;;;;;;1.33;1.13;;;16.50;99.90;;;;;;5071823;28;20555;-45
2022/05/25 09:04:07;;;;;;;3.70;2.27;;;16.50;99.90;;;;;;5071603;28;20494;-49
2022/05/25 09:06:40;;;;;;;1.30;1.00;;;16.40;99.90;;;;;;5070817;28;20567;-45
2022/05/25 09:09:13;;;;;;;5.30;2.30;;;16.20;99.90;;;;;;5071280;28;20505;-45
2022/05/25 09:11:46;;;;;;;1.73;0.93;;;16.10;99.90;;;;;;5071427;28;20468;-49
2022/05/25 09:14:19;;;;;;;1.40;1.30;;;15.90;99.90;;;;;;5071518;28;20495;-49
2022/05/25 09:16:49;;;;;;;1.60;1.10;;;16.00;99.90;;;;;;5071035;28;20436;-45
2022/05/25 09:19:20;;;;;;;2.03;1.50;;;16.10;99.90;;;;;;5071183;28;20483;-44
2022/05/25 09:21:53;;;;;;;1.50;1.20;;;16.10;99.90;;;;;;5071321;28;20465;-46
2022/05/25 09:24:23;;;;;;;1.87;1.43;;;15.90;99.90;;;;;;5071078;28;20476;-46
2022/05/25 09:26:51;;;;;;;2.53;1.90;;;15.80;99.90;;;;;;5071122;28;20512;-45
2022/05/25 09:29:19;;;;;;;2.03;1.47;;;15.70;99.90;;;;;;5070796;28;20437;-45
2022/05/25 09:31:51;;;;;;;1.63;1.43;;;15.70;99.90;;;;;;5070914;28;21003;-47
2022/05/25 09:34:26;;;;;;;1.37;1.07;;;15.90;99.90;;;;;;5071358;28;20468;-44
2022/05/25 09:36:59;;;;;;;2.60;2.30;;;15.90;99.90;;;;;;5070997;28;20436;-45
2022/05/25 09:39:32;;;;;;;2.23;2.03;;;15.70;99.90;;;;;;5070797;28;20501;-44
2022/05/25 09:42:00;;;;;;;2.30;1.80;;;15.60;99.90;;;;;;5070910;28;20460;-45
2022/05/25 09:44:29;;;;;;;2.27;2.07;;;15.40;99.90;;;;;;5071185;28;20505;-45
2022/05/25 09:47:00;;;;;;;3.07;2.17;;;15.40;99.90;;;;;;5070909;28;20555;-45
2022/05/25 09:49:38;;;;;;;1.67;1.57;;;15.20;99.90;;;;;;5070712;28;20444;-48
2022/05/25 09:52:11;;;;;;;4.30;1.80;;;15.10;99.90;;;;;;5070785;28;20845;-48
2022/05/25 09:54:45;;;;;;;1.30;1.20;;;15.10;99.90;;;;;;5071179;28;20483;-45
2022/05/25 09:57:22;;;;;;;1.50;1.40;;;15.10;99.90;;;;;;5071024;28;20524;-45
2022/05/25 09:59:55;;;;;;;2.13;1.30;;;15.20;99.90;;;;;;5070746;28;20447;-50
2022/05/25 10:02:26;;;;;;;2.27;1.30;;;15.30;99.90;;;;;;5070718;28;21015;-47
2022/05/25 10:04:55;;;;;;;1.60;1.37;;;15.40;99.90;;;;;;5070788;28;20448;-44
2022/05/25 10:07:30;;;;;;;1.20;1.00;;;15.40;99.90;;;;;;5070636;28;20480;-46
2022/05/25 10:10:00;;;;;;;1.10;0.70;;;15.50;99.90;;;;;;5070643;28;20443;-45
2022/05/25 10:12:31;;;;;;;1.50;1.00;;;15.40;99.90;;;;;;5070586;28;20447;-45
2022/05/25 10:15:01;;;;;;;1.63;1.20;;;15.30;99.90;;;;;;5070588;28;20481;-48
2022/05/25 10:17:35;;;;;;;2.20;1.23;;;15.40;99.90;;;;;;5070772;28;20540;-45
2022/05/25 10:20:04;;;;;;;5.73;3.50;;;15.60;99.90;;;;;;5071521;28;20447;-45
2022/05/25 10:22:35;;;;;;;2.27;1.90;;;15.80;99.90;;;;;;5074375;28;20463;-47
2022/05/25 10:25:07;;;;;;;5.30;3.10;;;16.00;99.90;;;;;;5074594;28;20495;-45
2022/05/25 10:27:38;;;;;;;1.77;1.60;;;16.20;99.90;;;;;;5074276;28;20568;-45
2022/05/25 10:38:46;;;;;;;1.20;1.10;;;16.40;99.90;;;;;;5073951;28;20447;-45
2022/05/25 10:44:07;;;;;;;1.23;0.93;;;16.60;99.90;;;;;;5074660;28;20911;-45
2022/05/25 10:46:34;;;;;;;1.10;0.90;;;16.60;99.90;;;;;;5074115;28;20923;-46
2022/05/25 10:49:08;;;;;;;2.20;1.03;;;16.70;99.90;;;;;;5073901;28;20440;-46
2022/05/25 10:51:42;;;;;;;1.10;0.60;;;16.80;99.90;;;;;;5074172;28;21046;-49
2022/05/25 10:57:04;;;;;;;1.00;0.67;;;16.60;99.90;;;;;;5074215;28;20766;-45
2022/05/25 10:59:40;;;;;;;1.57;0.73;;;16.70;99.90;;;;;;5073915;28;20467;-45
2022/05/25 11:02:29;;;;;;;2.13;1.10;;;16.90;99.90;;;;;;5073790;28;20470;-49
2022/05/25 11:05:23;;;;;;;1.43;0.90;;;16.90;99.90;;;;;;5073849;28;20464;-47
2022/05/25 11:07:55;;;;;;;1.00;0.77;;;17.00;99.90;;;;;;5073306;28;20764;-46
2022/05/25 11:10:44;;;;;;;2.07;1.00;;;16.90;99.90;;;;;;5073295;28;20547;-47
2022/05/25 11:13:42;;;;;;;1.10;0.90;;;16.90;99.90;;;;;;5073703;28;20502;-45
2022/05/25 11:16:40;;;;;;;3.63;1.37;;;16.80;99.90;;;;;;5073625;28;20440;-44
2022/05/25 11:19:26;;;;;;;1.60;1.23;;;16.80;99.90;;;;;;5073198;28;20483;-45
2022/05/25 11:22:05;;;;;;;2.53;1.10;;;16.90;99.90;;;;;;5073530;28;20464;-45
2022/05/25 11:24:58;;;;;;;1.97;0.90;;;17.00;99.90;;;;;;5073295;28;20928;-45
2022/05/25 11:27:41;;;;;;;2.10;1.50;;;16.60;99.90;;;;;;5073393;28;20579;-45
2022/05/25 11:30:17;;;;;;;1.20;1.00;;;16.60;99.90;;;;;;5073056;28;20494;-46
2022/05/25 11:33:10;;;;;;;1.60;1.10;;;16.70;99.90;;;;;;5072248;28;20444;-45
2022/05/25 11:35:46;;;;;;;1.97;0.90;;;16.70;99.90;;;;;;5073076;28;20451;-47
2022/05/25 11:38:23;;;;;;;4.57;1.37;;;16.80;99.90;;;;;;5073291;28;20440;-45
2022/05/25 11:41:01;;;;;;;1.23;0.90;;;16.80;99.90;;;;;;5072904;28;20456;-45
2022/05/25 11:44:07;;;;;;;1.10;0.93;;;16.90;99.90;;;;;;5073009;28;20445;-48
2022/05/25 11:46:42;;;;;;;1.70;1.00;;;17.00;99.90;;;;;;5065982;28;20519;-46
2022/05/25 11:49:42;;;;;;;1.13;0.83;;;17.10;99.90;;;;;;5072838;28;20478;-45
2022/05/25 11:52:22;;;;;;;2.27;1.30;;;17.10;99.90;;;;;;5072897;28;20991;-47
2022/05/25 11:55:08;;;;;;;1.20;0.90;;;17.20;99.90;;;;;;5073046;28;20479;-45
2022/05/25 11:57:40;;;;;;;1.20;0.83;;;17.20;99.90;;;;;;5072720;28;20925;-45
2022/05/25 12:00:21;;;;;;;1.50;0.87;;;17.20;99.90;;;;;;5072342;28;20961;-45
2022/05/25 12:03:25;;;;;;;3.50;1.53;;;17.30;99.90;;;;;;5072664;28;20822;-45
2022/05/25 12:06:04;;;;;;;1.30;1.00;;;17.30;99.90;;;;;;5072761;28;20448;-45
2022/05/25 12:08:49;;;;;;;1.27;0.97;;;17.30;99.90;;;;;;5072145;28;20433;-49
2022/05/25 12:11:25;;;;;;;1.80;0.80;;;17.30;99.90;;;;;;5073433;28;20496;-46
2022/05/25 12:14:10;;;;;;;1.60;1.07;;;17.40;99.90;;;;;;5072474;28;20432;-46
2022/05/25 12:16:41;;;;;;;1.00;0.80;;;17.40;99.90;;;;;;5072536;28;20436;-45
2022/05/25 12:19:14;;;;;;;1.27;0.90;;;17.40;99.90;;;;;;5072272;28;20471;-46
2022/05/25 12:21:45;;;;;;;1.40;0.90;;;17.40;99.90;;;;;;5072377;28;20514;-45
2022/05/25 12:24:16;;;;;;;1.00;0.90;;;17.40;99.90;;;;;;5072218;28;20793;-45
2022/05/25 12:26:44;;;;;;;1.23;0.90;;;17.30;99.90;;;;;;5072317;28;20555;-44
2022/05/25 12:29:19;;;;;;;1.07;0.80;;;17.30;99.90;;;;;;5071878;28;20538;-45
2022/05/25 12:31:50;;;;;;;1.20;0.80;;;17.40;99.90;;;;;;5071999;28;20464;-44
2022/05/25 12:34:24;;;;;;;1.20;1.03;;;17.40;99.90;;;;;;5072119;28;20581;-45
2022/05/25 12:36:52;;;;;;;1.00;0.70;;;17.50;99.90;;;;;;5072310;28;20450;-45
2022/05/25 12:40:04;;;;;;;1.00;0.60;;;17.60;99.90;;;;;;5071366;28;20447;-48
2022/05/25 12:42:39;;;;;;;1.10;0.77;;;17.60;99.90;;;;;;5009536;28;20475;-45
2022/05/25 12:50:44;;;;;;;1.20;0.93;;;17.70;99.90;;;;;;5071496;28;20435;-45
2022/05/25 12:53:33;;;;;;;1.20;1.00;;;17.50;99.90;;;;;;5071837;28;20476;-45
2022/05/25 12:56:02;;;;;;;1.73;0.80;;;17.60;99.90;;;;;;5071784;28;20968;-46
2022/05/25 12:58:34;;;;;;;1.10;0.80;;;17.60;99.90;;;;;;5071424;28;20519;-47
2022/05/25 13:01:04;;;;;;;1.20;0.90;;;17.60;99.90;;;;;;5071697;28;20530;-46
2022/05/25 13:04:03;;;;;;;2.13;1.00;;;17.60;99.90;;;;;;5071923;28;20471;-48
2022/05/25 13:07:03;;;;;;;1.53;1.43;;;17.50;99.90;;;;;;5023069;28;20444;-44
2022/05/25 13:09:40;;;;;;;1.60;1.00;;;17.40;99.90;;;;;;5071036;28;20870;-45
2022/05/25 13:12:56;;;;;;;1.60;0.97;;;17.50;99.90;;;;;;5071396;28;20494;-47
2022/05/25 13:15:46;;;;;;;3.00;1.00;;;17.50;99.90;;;;;;5071657;28;20436;-48
2022/05/25 13:18:45;;;;;;;2.27;1.20;;;17.10;99.90;;;;;;5064318;28;20448;-44
2022/05/25 13:21:34;;;;;;;1.20;1.00;;;17.10;99.90;;;;;;5071146;28;21049;-45
2022/05/25 13:24:24;;;;;;;2.53;1.10;;;16.80;99.90;;;;;;5071602;28;20531;-44
2022/05/25 13:27:14;;;;;;;2.00;1.27;;;16.40;99.90;;;;;;5070896;28;20554;-45
2022/05/25 13:29:57;;;;;;;2.60;1.23;;;16.20;99.90;;;;;;5071372;28;20527;-45
2022/05/25 13:32:35;;;;;;;2.33;1.30;;;16.30;99.90;;;;;;5071476;28;20444;-46
2022/05/25 13:35:23;;;;;;;2.90;1.20;;;16.40;99.90;;;;;;5071074;28;20440;-47
2022/05/25 13:37:53;;;;;;;1.77;1.03;;;16.40;99.90;;;;;;5050869;28;20452;-45
2022/05/25 13:40:22;;;;;;;2.43;1.43;;;16.50;99.90;;;;;;5070956;28;20456;-44
2022/05/25 13:42:52;;;;;;;2.00;1.70;;;16.40;99.90;;;;;;5070760;28;20968;-45
2022/05/25 13:45:24;;;;;;;1.60;1.37;;;16.50;99.90;;;;;;5071355;28;20475;-45
2022/05/25 13:47:53;;;;;;;4.43;1.20;;;16.60;99.90;;;;;;5070949;28;20476;-46